sensor_id;sensor_type;location;lat;lon;timestamp;P1;durP1;ratioP1;P2;durP2;ratioP2
72156;SDS011;60035;52.122;5.406;2023-04-25T00:01:40;14.38;;;3.28;;
72156;SDS011;60035;52.122;5.406;2023-04-25T00:04:06;7.80;;;2.25;;
72156;SDS011;60035;52.122;5.406;2023-04-25T00:06:34;17.48;;;2.33;;
72156;SDS011;60035;52.122;5.406;2023-04-25T00:09:05;11.32;;;2.22;;
72156;SDS011;60035;52.122;5.406;2023-04-25T00:11:36;11.68;;;2.28;;
72156;SDS011;60035;52.122;5.406;2023-04-25T00:14:03;10.82;;;2.30;;
72156;SDS011;60035;52.122;5.406;2023-04-25T00:16:30;13.80;;;2.47;;
72156;SDS011;60035;52.122;5.406;2023-04-25T00:19:01;7.35;;;1.98;;
72156;SDS011;60035;52.122;5.406;2023-04-25T00:21:28;13.93;;;2.17;;
72156;SDS011;60035;52.122;5.406;2023-04-25T00:23:55;13.23;;;2.53;;
72156;SDS011;60035;52.122;5.406;2023-04-25T00:26:22;12.82;;;2.90;;
72156;SDS011;60035;52.122;5.406;2023-04-25T00:28:49;15.68;;;2.53;;
72156;SDS011;60035;52.122;5.406;2023-04-25T00:31:15;15.30;;;2.47;;
72156;SDS011;60035;52.122;5.406;2023-04-25T00:33:42;8.48;;;2.13;;
72156;SDS011;60035;52.122;5.406;2023-04-25T00:36:08;12.55;;;3.17;;
72156;SDS011;60035;52.122;5.406;2023-04-25T00:38:35;12.73;;;2.95;;
72156;SDS011;60035;52.122;5.406;2023-04-25T00:41:02;13.38;;;1.98;;
72156;SDS011;60035;52.122;5.406;2023-04-25T00:43:28;13.57;;;2.33;;
72156;SDS011;60035;52.122;5.406;2023-04-25T00:45:59;10.90;;;2.35;;
72156;SDS011;60035;52.122;5.406;2023-04-25T00:48:27;13.68;;;2.50;;
72156;SDS011;60035;52.122;5.406;2023-04-25T00:50:55;12.50;;;2.17;;
72156;SDS011;60035;52.122;5.406;2023-04-25T00:53:25;11.10;;;2.35;;
72156;SDS011;60035;52.122;5.406;2023-04-25T00:55:53;12.07;;;2.20;;
72156;SDS011;60035;52.122;5.406;2023-04-25T00:58:21;11.57;;;2.50;;
72156;SDS011;60035;52.122;5.406;2023-04-25T01:00:49;10.88;;;2.10;;
72156;SDS011;60035;52.122;5.406;2023-04-25T01:03:18;10.73;;;2.50;;
72156;SDS011;60035;52.122;5.406;2023-04-25T01:05:48;9.80;;;2.33;;
72156;SDS011;60035;52.122;5.406;2023-04-25T01:08:15;13.15;;;2.42;;
72156;SDS011;60035;52.122;5.406;2023-04-25T01:10:44;8.95;;;2.22;;
72156;SDS011;60035;52.122;5.406;2023-04-25T01:13:11;11.95;;;1.98;;
72156;SDS011;60035;52.122;5.406;2023-04-25T01:15:37;13.63;;;2.33;;
72156;SDS011;60035;52.122;5.406;2023-04-25T01:18:04;13.38;;;2.67;;
72156;SDS011;60035;52.122;5.406;2023-04-25T01:20:32;9.38;;;2.45;;
72156;SDS011;60035;52.122;5.406;2023-04-25T01:22:59;11.88;;;2.40;;
72156;SDS011;60035;52.122;5.406;2023-04-25T01:25:29;11.15;;;2.13;;
72156;SDS011;60035;52.122;5.406;2023-04-25T01:27:58;11.38;;;2.17;;
72156;SDS011;60035;52.122;5.406;2023-04-25T01:30:27;13.13;;;2.80;;
72156;SDS011;60035;52.122;5.406;2023-04-25T01:32:55;14.55;;;2.80;;
72156;SDS011;60035;52.122;5.406;2023-04-25T01:35:23;12.07;;;2.25;;
72156;SDS011;60035;52.122;5.406;2023-04-25T01:37:50;10.38;;;2.53;;
72156;SDS011;60035;52.122;5.406;2023-04-25T01:40:17;16.38;;;2.75;;
72156;SDS011;60035;52.122;5.406;2023-04-25T01:42:45;12.02;;;2.53;;
72156;SDS011;60035;52.122;5.406;2023-04-25T01:45:12;9.77;;;2.15;;
72156;SDS011;60035;52.122;5.406;2023-04-25T01:47:39;9.65;;;1.63;;
72156;SDS011;60035;52.122;5.406;2023-04-25T01:50:07;14.85;;;2.15;;
72156;SDS011;60035;52.122;5.406;2023-04-25T01:52:34;15.18;;;2.63;;
72156;SDS011;60035;52.122;5.406;2023-04-25T01:55:01;12.90;;;2.28;;
72156;SDS011;60035;52.122;5.406;2023-04-25T01:57:28;14.40;;;2.30;;
72156;SDS011;60035;52.122;5.406;2023-04-25T01:59:55;8.75;;;1.70;;
72156;SDS011;60035;52.122;5.406;2023-04-25T02:02:25;13.82;;;2.53;;
72156;SDS011;60035;52.122;5.406;2023-04-25T02:04:52;10.18;;;2.55;;
72156;SDS011;60035;52.122;5.406;2023-04-25T02:07:20;9.82;;;1.95;;
72156;SDS011;60035;52.122;5.406;2023-04-25T02:09:47;11.02;;;2.33;;
72156;SDS011;60035;52.122;5.406;2023-04-25T02:12:13;10.80;;;2.03;;
72156;SDS011;60035;52.122;5.406;2023-04-25T02:14:40;13.23;;;2.08;;
72156;SDS011;60035;52.122;5.406;2023-04-25T02:17:06;11.45;;;2.08;;
72156;SDS011;60035;52.122;5.406;2023-04-25T02:19:33;12.93;;;2.47;;
72156;SDS011;60035;52.122;5.406;2023-04-25T02:21:59;10.07;;;2.13;;
72156;SDS011;60035;52.122;5.406;2023-04-25T02:24:26;11.23;;;2.08;;
72156;SDS011;60035;52.122;5.406;2023-04-25T02:26:54;13.30;;;2.28;;
72156;SDS011;60035;52.122;5.406;2023-04-25T02:29:21;12.25;;;1.83;;
72156;SDS011;60035;52.122;5.406;2023-04-25T02:31:48;12.20;;;2.50;;
72156;SDS011;60035;52.122;5.406;2023-04-25T02:34:15;13.43;;;1.90;;
72156;SDS011;60035;52.122;5.406;2023-04-25T02:36:41;13.02;;;2.20;;
72156;SDS011;60035;52.122;5.406;2023-04-25T02:39:08;12.27;;;2.15;;
72156;SDS011;60035;52.122;5.406;2023-04-25T02:41:34;11.63;;;2.10;;
72156;SDS011;60035;52.122;5.406;2023-04-25T02:44:01;10.23;;;2.33;;
72156;SDS011;60035;52.122;5.406;2023-04-25T02:46:27;11.13;;;2.22;;
72156;SDS011;60035;52.122;5.406;2023-04-25T02:49:05;12.02;;;2.30;;
72156;SDS011;60035;52.122;5.406;2023-04-25T02:51:32;12.00;;;2.10;;
72156;SDS011;60035;52.122;5.406;2023-04-25T02:53:58;12.20;;;2.00;;
72156;SDS011;60035;52.122;5.406;2023-04-25T02:56:25;12.23;;;2.22;;
72156;SDS011;60035;52.122;5.406;2023-04-25T02:58:52;8.95;;;1.73;;
72156;SDS011;60035;52.122;5.406;2023-04-25T03:01:19;10.60;;;2.28;;
72156;SDS011;60035;52.122;5.406;2023-04-25T03:03:46;11.85;;;2.50;;
72156;SDS011;60035;52.122;5.406;2023-04-25T03:06:13;11.95;;;2.45;;
72156;SDS011;60035;52.122;5.406;2023-04-25T03:08:40;12.95;;;2.35;;
72156;SDS011;60035;52.122;5.406;2023-04-25T03:11:07;12.15;;;2.20;;
72156;SDS011;60035;52.122;5.406;2023-04-25T03:13:33;8.13;;;1.92;;
72156;SDS011;60035;52.122;5.406;2023-04-25T03:16:00;10.57;;;2.40;;
72156;SDS011;60035;52.122;5.406;2023-04-25T03:18:27;13.73;;;2.72;;
72156;SDS011;60035;52.122;5.406;2023-04-25T03:20:53;10.00;;;2.38;;
72156;SDS011;60035;52.122;5.406;2023-04-25T03:23:20;9.65;;;2.50;;
72156;SDS011;60035;52.122;5.406;2023-04-25T03:25:46;11.40;;;2.10;;
72156;SDS011;60035;52.122;5.406;2023-04-25T03:28:13;11.65;;;2.53;;
72156;SDS011;60035;52.122;5.406;2023-04-25T03:30:39;15.35;;;2.67;;
72156;SDS011;60035;52.122;5.406;2023-04-25T03:33:06;15.13;;;3.17;;
72156;SDS011;60035;52.122;5.406;2023-04-25T03:35:32;14.35;;;3.00;;
72156;SDS011;60035;52.122;5.406;2023-04-25T03:37:59;11.48;;;1.88;;
72156;SDS011;60035;52.122;5.406;2023-04-25T03:40:25;11.98;;;2.53;;
72156;SDS011;60035;52.122;5.406;2023-04-25T03:42:52;10.98;;;2.58;;
72156;SDS011;60035;52.122;5.406;2023-04-25T03:45:18;14.45;;;1.98;;
72156;SDS011;60035;52.122;5.406;2023-04-25T03:47:45;11.70;;;1.95;;
72156;SDS011;60035;52.122;5.406;2023-04-25T03:50:11;10.98;;;2.55;;
72156;SDS011;60035;52.122;5.406;2023-04-25T03:52:38;8.13;;;1.80;;
72156;SDS011;60035;52.122;5.406;2023-04-25T03:55:05;9.32;;;1.92;;
72156;SDS011;60035;52.122;5.406;2023-04-25T03:57:31;12.32;;;1.90;;
72156;SDS011;60035;52.122;5.406;2023-04-25T04:00:01;10.73;;;2.00;;
72156;SDS011;60035;52.122;5.406;2023-04-25T04:02:28;7.85;;;1.83;;
72156;SDS011;60035;52.122;5.406;2023-04-25T04:04:57;13.75;;;2.10;;
72156;SDS011;60035;52.122;5.406;2023-04-25T04:07:31;6.57;;;1.60;;
72156;SDS011;60035;52.122;5.406;2023-04-25T04:10:02;9.38;;;1.65;;
72156;SDS011;60035;52.122;5.406;2023-04-25T04:12:31;10.82;;;1.80;;
72156;SDS011;60035;52.122;5.406;2023-04-25T04:15:01;12.07;;;2.20;;
72156;SDS011;60035;52.122;5.406;2023-04-25T04:17:29;9.90;;;1.95;;
72156;SDS011;60035;52.122;5.406;2023-04-25T04:19:56;11.50;;;1.70;;
72156;SDS011;60035;52.122;5.406;2023-04-25T04:22:23;6.47;;;1.17;;
72156;SDS011;60035;52.122;5.406;2023-04-25T04:24:50;10.68;;;2.15;;
72156;SDS011;60035;52.122;5.406;2023-04-25T04:27:17;10.93;;;1.52;;
72156;SDS011;60035;52.122;5.406;2023-04-25T04:29:45;12.32;;;1.73;;
72156;SDS011;60035;52.122;5.406;2023-04-25T04:32:12;11.48;;;1.83;;
72156;SDS011;60035;52.122;5.406;2023-04-25T04:34:42;13.10;;;1.75;;
72156;SDS011;60035;52.122;5.406;2023-04-25T04:37:09;8.10;;;1.92;;
72156;SDS011;60035;52.122;5.406;2023-04-25T04:39:36;9.98;;;1.55;;
72156;SDS011;60035;52.122;5.406;2023-04-25T04:42:04;6.72;;;1.10;;
72156;SDS011;60035;52.122;5.406;2023-04-25T04:44:31;7.40;;;1.35;;
72156;SDS011;60035;52.122;5.406;2023-04-25T04:47:01;9.85;;;1.95;;
72156;SDS011;60035;52.122;5.406;2023-04-25T04:49:29;9.80;;;1.40;;
72156;SDS011;60035;52.122;5.406;2023-04-25T04:51:56;8.65;;;1.60;;
72156;SDS011;60035;52.122;5.406;2023-04-25T04:54:25;7.20;;;1.58;;
72156;SDS011;60035;52.122;5.406;2023-04-25T04:56:51;6.25;;;1.23;;
72156;SDS011;60035;52.122;5.406;2023-04-25T04:59:18;4.13;;;1.17;;
72156;SDS011;60035;52.122;5.406;2023-04-25T05:01:45;7.75;;;1.65;;
72156;SDS011;60035;52.122;5.406;2023-04-25T05:04:15;5.97;;;1.00;;
72156;SDS011;60035;52.122;5.406;2023-04-25T05:06:41;5.75;;;0.95;;
72156;SDS011;60035;52.122;5.406;2023-04-25T05:09:14;5.57;;;1.30;;
72156;SDS011;60035;52.122;5.406;2023-04-25T05:11:41;10.15;;;1.50;;
72156;SDS011;60035;52.122;5.406;2023-04-25T05:14:07;5.75;;;1.65;;
72156;SDS011;60035;52.122;5.406;2023-04-25T05:16:34;8.02;;;1.67;;
72156;SDS011;60035;52.122;5.406;2023-04-25T05:19:01;11.35;;;1.73;;
72156;SDS011;60035;52.122;5.406;2023-04-25T05:21:37;9.35;;;1.63;;
72156;SDS011;60035;52.122;5.406;2023-04-25T05:24:03;8.50;;;1.40;;
72156;SDS011;60035;52.122;5.406;2023-04-25T05:26:36;9.10;;;1.50;;
72156;SDS011;60035;52.122;5.406;2023-04-25T05:29:06;7.55;;;1.63;;
72156;SDS011;60035;52.122;5.406;2023-04-25T05:31:35;11.68;;;1.63;;
72156;SDS011;60035;52.122;5.406;2023-04-25T05:34:02;5.82;;;1.92;;
72156;SDS011;60035;52.122;5.406;2023-04-25T05:36:29;5.50;;;1.20;;
72156;SDS011;60035;52.122;5.406;2023-04-25T05:38:56;7.88;;;1.25;;
72156;SDS011;60035;52.122;5.406;2023-04-25T05:41:23;5.97;;;1.33;;
72156;SDS011;60035;52.122;5.406;2023-04-25T05:43:49;4.78;;;1.15;;
72156;SDS011;60035;52.122;5.406;2023-04-25T05:46:16;6.55;;;1.30;;
72156;SDS011;60035;52.122;5.406;2023-04-25T05:48:43;9.00;;;2.67;;
72156;SDS011;60035;52.122;5.406;2023-04-25T05:51:09;8.70;;;1.85;;
72156;SDS011;60035;52.122;5.406;2023-04-25T05:53:36;5.28;;;1.27;;
72156;SDS011;60035;52.122;5.406;2023-04-25T05:56:02;9.60;;;1.45;;
72156;SDS011;60035;52.122;5.406;2023-04-25T05:58:29;7.43;;;1.20;;
72156;SDS011;60035;52.122;5.406;2023-04-25T06:00:56;6.40;;;1.38;;
72156;SDS011;60035;52.122;5.406;2023-04-25T06:03:22;5.13;;;1.30;;
72156;SDS011;60035;52.122;5.406;2023-04-25T06:05:49;9.23;;;1.77;;
72156;SDS011;60035;52.122;5.406;2023-04-25T06:08:16;6.22;;;1.33;;
72156;SDS011;60035;52.122;5.406;2023-04-25T06:10:42;5.43;;;1.00;;
72156;SDS011;60035;52.122;5.406;2023-04-25T06:13:09;7.55;;;1.20;;
72156;SDS011;60035;52.122;5.406;2023-04-25T06:15:35;11.05;;;1.23;;
72156;SDS011;60035;52.122;5.406;2023-04-25T06:18:02;6.50;;;1.40;;
72156;SDS011;60035;52.122;5.406;2023-04-25T06:20:29;5.30;;;1.50;;
72156;SDS011;60035;52.122;5.406;2023-04-25T06:22:55;5.72;;;1.10;;
72156;SDS011;60035;52.122;5.406;2023-04-25T06:25:22;6.25;;;1.52;;
72156;SDS011;60035;52.122;5.406;2023-04-25T06:27:48;7.90;;;1.63;;
72156;SDS011;60035;52.122;5.406;2023-04-25T06:30:15;7.05;;;1.23;;
72156;SDS011;60035;52.122;5.406;2023-04-25T06:32:44;7.18;;;1.23;;
72156;SDS011;60035;52.122;5.406;2023-04-25T06:35:10;7.53;;;1.23;;
72156;SDS011;60035;52.122;5.406;2023-04-25T06:37:37;6.20;;;1.10;;
72156;SDS011;60035;52.122;5.406;2023-04-25T06:40:03;12.45;;;1.90;;
72156;SDS011;60035;52.122;5.406;2023-04-25T06:42:32;7.57;;;1.33;;
72156;SDS011;60035;52.122;5.406;2023-04-25T06:44:58;5.88;;;1.60;;
72156;SDS011;60035;52.122;5.406;2023-04-25T06:47:27;6.05;;;1.05;;
72156;SDS011;60035;52.122;5.406;2023-04-25T06:49:54;9.10;;;1.23;;
72156;SDS011;60035;52.122;5.406;2023-04-25T06:52:30;7.35;;;1.38;;
72156;SDS011;60035;52.122;5.406;2023-04-25T06:55:00;8.57;;;1.48;;
72156;SDS011;60035;52.122;5.406;2023-04-25T06:57:27;8.85;;;0.85;;
72156;SDS011;60035;52.122;5.406;2023-04-25T06:59:53;9.20;;;1.52;;
72156;SDS011;60035;52.122;5.406;2023-04-25T07:02:20;7.07;;;1.30;;
72156;SDS011;60035;52.122;5.406;2023-04-25T07:04:50;6.95;;;1.15;;
72156;SDS011;60035;52.122;5.406;2023-04-25T07:07:17;7.82;;;1.35;;
72156;SDS011;60035;52.122;5.406;2023-04-25T07:09:43;7.38;;;1.15;;
72156;SDS011;60035;52.122;5.406;2023-04-25T07:12:10;5.22;;;1.40;;
72156;SDS011;60035;52.122;5.406;2023-04-25T07:14:36;4.40;;;0.82;;
72156;SDS011;60035;52.122;5.406;2023-04-25T07:17:03;10.48;;;1.60;;
72156;SDS011;60035;52.122;5.406;2023-04-25T07:19:29;7.43;;;1.20;;
72156;SDS011;60035;52.122;5.406;2023-04-25T07:21:56;5.63;;;1.00;;
72156;SDS011;60035;52.122;5.406;2023-04-25T07:24:22;8.60;;;1.20;;
72156;SDS011;60035;52.122;5.406;2023-04-25T07:26:49;11.90;;;1.00;;
72156;SDS011;60035;52.122;5.406;2023-04-25T07:29:16;5.35;;;0.63;;
72156;SDS011;60035;52.122;5.406;2023-04-25T07:31:42;7.68;;;1.15;;
72156;SDS011;60035;52.122;5.406;2023-04-25T07:34:09;6.72;;;0.88;;
72156;SDS011;60035;52.122;5.406;2023-04-25T07:36:35;6.10;;;0.77;;
72156;SDS011;60035;52.122;5.406;2023-04-25T07:39:01;4.78;;;0.88;;
72156;SDS011;60035;52.122;5.406;2023-04-25T07:41:28;9.27;;;1.23;;
72156;SDS011;60035;52.122;5.406;2023-04-25T07:43:55;5.80;;;0.70;;
72156;SDS011;60035;52.122;5.406;2023-04-25T07:46:21;7.82;;;1.55;;
72156;SDS011;60035;52.122;5.406;2023-04-25T07:48:48;6.35;;;1.10;;
72156;SDS011;60035;52.122;5.406;2023-04-25T07:51:15;7.65;;;1.25;;
72156;SDS011;60035;52.122;5.406;2023-04-25T07:53:41;4.65;;;0.90;;
72156;SDS011;60035;52.122;5.406;2023-04-25T07:56:08;7.35;;;1.00;;
72156;SDS011;60035;52.122;5.406;2023-04-25T07:58:35;5.88;;;0.68;;
72156;SDS011;60035;52.122;5.406;2023-04-25T08:01:01;6.22;;;1.25;;
72156;SDS011;60035;52.122;5.406;2023-04-25T08:03:28;3.58;;;0.85;;
72156;SDS011;60035;52.122;5.406;2023-04-25T08:05:55;7.25;;;1.05;;
72156;SDS011;60035;52.122;5.406;2023-04-25T08:08:22;5.70;;;0.82;;
72156;SDS011;60035;52.122;5.406;2023-04-25T08:10:48;4.30;;;0.95;;
72156;SDS011;60035;52.122;5.406;2023-04-25T08:13:14;5.97;;;0.70;;
72156;SDS011;60035;52.122;5.406;2023-04-25T08:15:41;10.35;;;0.98;;
72156;SDS011;60035;52.122;5.406;2023-04-25T08:18:08;8.23;;;1.00;;
72156;SDS011;60035;52.122;5.406;2023-04-25T08:20:34;6.88;;;1.45;;
72156;SDS011;60035;52.122;5.406;2023-04-25T08:23:04;5.68;;;0.75;;
72156;SDS011;60035;52.122;5.406;2023-04-25T08:25:33;7.35;;;0.88;;
72156;SDS011;60035;52.122;5.406;2023-04-25T08:28:00;6.15;;;1.02;;
72156;SDS011;60035;52.122;5.406;2023-04-25T08:30:29;6.45;;;1.08;;
72156;SDS011;60035;52.122;5.406;2023-04-25T08:32:56;7.22;;;0.70;;
72156;SDS011;60035;52.122;5.406;2023-04-25T08:35:22;4.18;;;1.02;;
72156;SDS011;60035;52.122;5.406;2023-04-25T08:37:49;2.83;;;0.75;;
72156;SDS011;60035;52.122;5.406;2023-04-25T08:40:15;3.83;;;0.52;;
72156;SDS011;60035;52.122;5.406;2023-04-25T08:42:42;3.42;;;0.60;;
72156;SDS011;60035;52.122;5.406;2023-04-25T08:45:09;2.83;;;0.55;;
72156;SDS011;60035;52.122;5.406;2023-04-25T08:47:36;3.58;;;0.70;;
72156;SDS011;60035;52.122;5.406;2023-04-25T08:50:04;3.83;;;0.60;;
72156;SDS011;60035;52.122;5.406;2023-04-25T08:52:35;4.95;;;0.63;;
72156;SDS011;60035;52.122;5.406;2023-04-25T08:55:06;5.28;;;0.77;;
72156;SDS011;60035;52.122;5.406;2023-04-25T08:57:35;4.85;;;0.70;;
72156;SDS011;60035;52.122;5.406;2023-04-25T09:00:03;7.55;;;1.23;;
72156;SDS011;60035;52.122;5.406;2023-04-25T09:02:30;5.40;;;0.57;;
72156;SDS011;60035;52.122;5.406;2023-04-25T09:04:57;10.27;;;1.33;;
72156;SDS011;60035;52.122;5.406;2023-04-25T09:07:26;4.22;;;0.80;;
72156;SDS011;60035;52.122;5.406;2023-04-25T09:09:53;5.97;;;1.08;;
72156;SDS011;60035;52.122;5.406;2023-04-25T09:12:20;7.68;;;1.05;;
72156;SDS011;60035;52.122;5.406;2023-04-25T09:15:09;6.35;;;1.02;;
72156;SDS011;60035;52.122;5.406;2023-04-25T09:17:38;6.68;;;0.77;;
72156;SDS011;60035;52.122;5.406;2023-04-25T09:20:11;5.32;;;0.88;;
72156;SDS011;60035;52.122;5.406;2023-04-25T09:22:39;4.55;;;0.60;;
72156;SDS011;60035;52.122;5.406;2023-04-25T09:27:37;4.88;;;0.50;;
72156;SDS011;60035;52.122;5.406;2023-04-25T09:30:16;7.70;;;1.13;;
72156;SDS011;60035;52.122;5.406;2023-04-25T09:32:43;7.45;;;1.08;;
72156;SDS011;60035;52.122;5.406;2023-04-25T09:35:10;6.47;;;0.98;;
72156;SDS011;60035;52.122;5.406;2023-04-25T09:37:37;5.78;;;1.10;;
72156;SDS011;60035;52.122;5.406;2023-04-25T09:40:06;4.22;;;1.05;;
72156;SDS011;60035;52.122;5.406;2023-04-25T09:42:34;5.72;;;0.90;;
72156;SDS011;60035;52.122;5.406;2023-04-25T09:45:01;4.97;;;0.63;;
72156;SDS011;60035;52.122;5.406;2023-04-25T09:47:28;3.35;;;0.75;;
72156;SDS011;60035;52.122;5.406;2023-04-25T09:49:55;7.20;;;0.82;;
72156;SDS011;60035;52.122;5.406;2023-04-25T09:52:22;3.22;;;0.60;;
72156;SDS011;60035;52.122;5.406;2023-04-25T09:54:51;3.53;;;0.57;;
72156;SDS011;60035;52.122;5.406;2023-04-25T09:57:19;3.03;;;0.63;;
72156;SDS011;60035;52.122;5.406;2023-04-25T09:59:48;3.33;;;0.60;;
72156;SDS011;60035;52.122;5.406;2023-04-25T10:02:16;5.32;;;0.70;;
72156;SDS011;60035;52.122;5.406;2023-04-25T10:04:48;5.05;;;0.70;;
72156;SDS011;60035;52.122;5.406;2023-04-25T10:07:29;8.77;;;1.27;;
72156;SDS011;60035;52.122;5.406;2023-04-25T10:09:59;5.10;;;0.82;;
72156;SDS011;60035;52.122;5.406;2023-04-25T10:12:30;2.55;;;0.47;;
72156;SDS011;60035;52.122;5.406;2023-04-25T10:14:58;4.60;;;0.88;;
72156;SDS011;60035;52.122;5.406;2023-04-25T10:17:29;1.52;;;0.65;;
72156;SDS011;60035;52.122;5.406;2023-04-25T10:20:01;4.40;;;0.80;;
72156;SDS011;60035;52.122;5.406;2023-04-25T10:22:35;5.75;;;0.63;;
72156;SDS011;60035;52.122;5.406;2023-04-25T10:25:03;4.43;;;0.98;;
72156;SDS011;60035;52.122;5.406;2023-04-25T10:27:30;4.80;;;0.70;;
72156;SDS011;60035;52.122;5.406;2023-04-25T10:30:01;3.20;;;0.52;;
72156;SDS011;60035;52.122;5.406;2023-04-25T10:32:30;4.97;;;1.05;;
72156;SDS011;60035;52.122;5.406;2023-04-25T10:35:09;6.07;;;0.90;;
72156;SDS011;60035;52.122;5.406;2023-04-25T10:37:37;9.30;;;1.02;;
72156;SDS011;60035;52.122;5.406;2023-04-25T10:40:09;3.30;;;0.60;;
72156;SDS011;60035;52.122;5.406;2023-04-25T10:42:36;5.00;;;0.90;;
72156;SDS011;60035;52.122;5.406;2023-04-25T10:45:05;3.00;;;0.60;;
72156;SDS011;60035;52.122;5.406;2023-04-25T10:47:36;3.67;;;0.90;;
72156;SDS011;60035;52.122;5.406;2023-04-25T10:50:09;4.38;;;0.75;;
72156;SDS011;60035;52.122;5.406;2023-04-25T10:52:36;3.90;;;0.70;;
72156;SDS011;60035;52.122;5.406;2023-04-25T10:55:05;6.05;;;0.55;;
72156;SDS011;60035;52.122;5.406;2023-04-25T10:57:35;7.57;;;0.60;;
72156;SDS011;60035;52.122;5.406;2023-04-25T11:00:09;5.03;;;0.95;;
72156;SDS011;60035;52.122;5.406;2023-04-25T11:02:47;6.22;;;0.80;;
72156;SDS011;60035;52.122;5.406;2023-04-25T11:05:22;4.43;;;0.70;;
72156;SDS011;60035;52.122;5.406;2023-04-25T11:07:55;3.42;;;0.63;;
72156;SDS011;60035;52.122;5.406;2023-04-25T11:10:33;5.35;;;0.80;;
72156;SDS011;60035;52.122;5.406;2023-04-25T11:13:01;6.97;;;0.82;;
72156;SDS011;60035;52.122;5.406;2023-04-25T11:15:28;6.90;;;0.90;;
72156;SDS011;60035;52.122;5.406;2023-04-25T11:17:55;3.92;;;0.70;;
72156;SDS011;60035;52.122;5.406;2023-04-25T11:20:22;3.70;;;1.13;;
72156;SDS011;60035;52.122;5.406;2023-04-25T11:22:57;2.58;;;0.60;;
72156;SDS011;60035;52.122;5.406;2023-04-25T11:25:24;4.35;;;1.08;;
72156;SDS011;60035;52.122;5.406;2023-04-25T11:27:56;4.57;;;0.85;;
72156;SDS011;60035;52.122;5.406;2023-04-25T11:30:25;2.75;;;0.57;;
72156;SDS011;60035;52.122;5.406;2023-04-25T11:32:52;4.00;;;0.70;;
72156;SDS011;60035;52.122;5.406;2023-04-25T11:35:19;3.75;;;0.73;;
72156;SDS011;60035;52.122;5.406;2023-04-25T11:37:46;6.22;;;1.02;;
72156;SDS011;60035;52.122;5.406;2023-04-25T11:40:13;4.80;;;0.82;;
72156;SDS011;60035;52.122;5.406;2023-04-25T11:42:44;5.57;;;0.82;;
72156;SDS011;60035;52.122;5.406;2023-04-25T11:45:12;5.03;;;1.20;;
72156;SDS011;60035;52.122;5.406;2023-04-25T11:47:39;4.43;;;1.02;;
72156;SDS011;60035;52.122;5.406;2023-04-25T11:50:06;5.32;;;1.33;;
72156;SDS011;60035;52.122;5.406;2023-04-25T11:52:41;4.45;;;0.65;;
72156;SDS011;60035;52.122;5.406;2023-04-25T11:55:09;7.35;;;1.00;;
72156;SDS011;60035;52.122;5.406;2023-04-25T11:57:40;1.77;;;0.73;;
72156;SDS011;60035;52.122;5.406;2023-04-25T12:00:08;4.97;;;1.17;;
72156;SDS011;60035;52.122;5.406;2023-04-25T12:02:44;4.57;;;0.98;;
72156;SDS011;60035;52.122;5.406;2023-04-25T12:05:18;4.15;;;0.70;;
72156;SDS011;60035;52.122;5.406;2023-04-25T12:08:09;6.47;;;1.20;;
72156;SDS011;60035;52.122;5.406;2023-04-25T12:10:40;5.50;;;0.70;;
72156;SDS011;60035;52.122;5.406;2023-04-25T12:13:17;5.40;;;1.05;;
72156;SDS011;60035;52.122;5.406;2023-04-25T12:15:46;3.33;;;0.75;;
72156;SDS011;60035;52.122;5.406;2023-04-25T12:18:12;4.18;;;0.65;;
72156;SDS011;60035;52.122;5.406;2023-04-25T12:20:39;3.45;;;0.80;;
72156;SDS011;60035;52.122;5.406;2023-04-25T12:23:06;3.42;;;0.80;;
72156;SDS011;60035;52.122;5.406;2023-04-25T12:25:34;2.60;;;0.60;;
72156;SDS011;60035;52.122;5.406;2023-04-25T12:28:21;5.05;;;0.93;;
72156;SDS011;60035;52.122;5.406;2023-04-25T12:30:53;5.72;;;1.15;;
72156;SDS011;60035;52.122;5.406;2023-04-25T12:33:25;3.75;;;0.73;;
72156;SDS011;60035;52.122;5.406;2023-04-25T12:35:59;4.72;;;0.70;;
72156;SDS011;60035;52.122;5.406;2023-04-25T12:38:28;4.30;;;0.60;;
72156;SDS011;60035;52.122;5.406;2023-04-25T12:40:59;3.20;;;0.50;;
72156;SDS011;60035;52.122;5.406;2023-04-25T12:43:28;3.25;;;0.63;;
72156;SDS011;60035;52.122;5.406;2023-04-25T12:45:55;6.78;;;0.90;;
72156;SDS011;60035;52.122;5.406;2023-04-25T12:48:22;4.13;;;0.77;;
72156;SDS011;60035;52.122;5.406;2023-04-25T12:50:49;5.57;;;0.85;;
72156;SDS011;60035;52.122;5.406;2023-04-25T12:53:21;4.00;;;0.93;;
72156;SDS011;60035;52.122;5.406;2023-04-25T12:55:49;3.10;;;0.50;;
72156;SDS011;60035;52.122;5.406;2023-04-25T12:58:17;3.75;;;0.73;;
72156;SDS011;60035;52.122;5.406;2023-04-25T13:00:44;5.43;;;0.88;;
72156;SDS011;60035;52.122;5.406;2023-04-25T13:03:11;3.80;;;0.73;;
72156;SDS011;60035;52.122;5.406;2023-04-25T13:05:39;1.10;;;0.32;;
72156;SDS011;60035;52.122;5.406;2023-04-25T13:08:06;2.88;;;0.50;;
72156;SDS011;60035;52.122;5.406;2023-04-25T13:10:32;3.10;;;0.75;;
72156;SDS011;60035;52.122;5.406;2023-04-25T13:13:00;4.63;;;0.65;;
72156;SDS011;60035;52.122;5.406;2023-04-25T13:15:27;3.08;;;0.63;;
72156;SDS011;60035;52.122;5.406;2023-04-25T13:17:54;4.05;;;0.80;;
72156;SDS011;60035;52.122;5.406;2023-04-25T13:20:23;5.80;;;0.73;;
72156;SDS011;60035;52.122;5.406;2023-04-25T13:22:53;7.47;;;0.90;;
72156;SDS011;60035;52.122;5.406;2023-04-25T13:25:19;3.72;;;0.57;;
72156;SDS011;60035;52.122;5.406;2023-04-25T13:27:46;3.50;;;0.85;;
72156;SDS011;60035;52.122;5.406;2023-04-25T13:30:12;3.28;;;0.70;;
72156;SDS011;60035;52.122;5.406;2023-04-25T13:32:39;4.43;;;0.60;;
72156;SDS011;60035;52.122;5.406;2023-04-25T13:35:09;5.00;;;0.82;;
72156;SDS011;60035;52.122;5.406;2023-04-25T13:37:38;3.78;;;0.55;;
72156;SDS011;60035;52.122;5.406;2023-04-25T13:40:06;4.10;;;0.50;;
72156;SDS011;60035;52.122;5.406;2023-04-25T13:42:35;5.55;;;0.60;;
72156;SDS011;60035;52.122;5.406;2023-04-25T13:45:03;3.63;;;0.70;;
72156;SDS011;60035;52.122;5.406;2023-04-25T13:47:30;5.45;;;0.90;;
72156;SDS011;60035;52.122;5.406;2023-04-25T13:49:57;2.40;;;0.60;;
72156;SDS011;60035;52.122;5.406;2023-04-25T13:52:23;4.72;;;1.08;;
72156;SDS011;60035;52.122;5.406;2023-04-25T13:54:51;7.13;;;0.82;;
72156;SDS011;60035;52.122;5.406;2023-04-25T13:57:18;4.45;;;0.60;;
72156;SDS011;60035;52.122;5.406;2023-04-25T13:59:45;3.67;;;0.73;;
72156;SDS011;60035;52.122;5.406;2023-04-25T14:02:12;3.83;;;1.00;;
72156;SDS011;60035;52.122;5.406;2023-04-25T14:04:38;6.40;;;1.20;;
72156;SDS011;60035;52.122;5.406;2023-04-25T14:07:05;4.78;;;0.90;;
72156;SDS011;60035;52.122;5.406;2023-04-25T14:09:32;5.03;;;0.90;;
72156;SDS011;60035;52.122;5.406;2023-04-25T14:11:58;8.13;;;1.00;;
72156;SDS011;60035;52.122;5.406;2023-04-25T14:14:31;5.28;;;1.08;;
72156;SDS011;60035;52.122;5.406;2023-04-25T14:16:58;7.78;;;0.90;;
72156;SDS011;60035;52.122;5.406;2023-04-25T14:19:24;5.68;;;0.90;;
72156;SDS011;60035;52.122;5.406;2023-04-25T14:21:58;5.40;;;1.05;;
72156;SDS011;60035;52.122;5.406;2023-04-25T14:24:31;3.85;;;0.90;;
72156;SDS011;60035;52.122;5.406;2023-04-25T14:27:00;5.35;;;1.17;;
72156;SDS011;60035;52.122;5.406;2023-04-25T14:29:31;4.07;;;0.85;;
72156;SDS011;60035;52.122;5.406;2023-04-25T14:31:57;5.35;;;1.17;;
72156;SDS011;60035;52.122;5.406;2023-04-25T14:34:27;5.47;;;0.85;;
72156;SDS011;60035;52.122;5.406;2023-04-25T14:36:53;7.00;;;1.25;;
72156;SDS011;60035;52.122;5.406;2023-04-25T14:39:22;2.95;;;0.88;;
72156;SDS011;60035;52.122;5.406;2023-04-25T14:41:48;2.10;;;0.60;;
72156;SDS011;60035;52.122;5.406;2023-04-25T14:44:17;3.03;;;1.52;;
72156;SDS011;60035;52.122;5.406;2023-04-25T14:46:46;4.53;;;0.68;;
72156;SDS011;60035;52.122;5.406;2023-04-25T14:49:17;2.58;;;0.43;;
72156;SDS011;60035;52.122;5.406;2023-04-25T14:51:44;4.93;;;1.10;;